Time;durP1;ratioP1;P1;durP2;ratioP2;P2;SDS_P1;SDS_P2;PMS_P1;PMS_P2;Temp;Humidity;BMP_temperature;BMP_pressure;BME280_temperature;BME280_humidity;BME280_pressure;Samples;Min_cycle;Max_cycle;Signal;HPM_P1;HPM_P2
2021/08/10 00:00:49;;;;;;;7.85;5.10;;;14.20;84.80;;;;;;5031747;28;20034;-74
2021/08/10 00:03:17;;;;;;;6.57;4.93;;;14.20;84.80;;;;;;5031763;28;20056;-73
2021/08/10 00:05:48;;;;;;;8.57;4.50;;;14.20;84.80;;;;;;5039882;28;20490;-73
2021/08/10 00:08:17;;;;;;;6.30;4.50;;;14.20;84.80;;;;;;5051544;28;20049;-74
2021/08/10 00:10:45;;;;;;;7.40;4.72;;;14.30;84.80;;;;;;5051681;28;20053;-74
2021/08/10 00:13:14;;;;;;;6.85;4.97;;;14.30;84.80;;;;;;5051855;28;20049;-73
2021/08/10 00:15:42;;;;;;;5.88;4.50;;;14.30;84.80;;;;;;5051648;28;20451;-73
2021/08/10 00:18:11;;;;;;;7.70;4.43;;;14.30;84.80;;;;;;5051650;28;20049;-74
2021/08/10 00:20:38;;;;;;;7.07;4.75;;;14.20;84.90;;;;;;5051444;28;20045;-73
2021/08/10 00:23:06;;;;;;;7.93;5.28;;;14.30;84.90;;;;;;5051652;28;20048;-74
2021/08/10 00:25:34;;;;;;;14.65;5.55;;;14.30;84.90;;;;;;5051326;28;20064;-73
2021/08/10 00:28:10;;;;;;;8.25;5.18;;;14.30;85.00;;;;;;5051763;28;20072;-74
2021/08/10 00:30:41;;;;;;;9.95;5.32;;;14.20;85.10;;;;;;5050297;28;20045;-73
2021/08/10 00:33:09;;;;;;;12.50;5.18;;;14.20;85.20;;;;;;5050337;28;20045;-74
2021/08/10 00:35:37;;;;;;;7.68;5.20;;;14.20;85.40;;;;;;5050339;28;20045;-73
2021/08/10 00:38:05;;;;;;;11.80;5.30;;;14.20;85.50;;;;;;5050135;28;20507;-74
2021/08/10 00:40:36;;;;;;;9.35;5.05;;;14.20;85.50;;;;;;5050453;28;20049;-74
2021/08/10 00:43:30;;;;;;;10.00;5.68;;;14.20;85.60;;;;;;5033870;28;20045;-74
2021/08/10 00:46:02;;;;;;;8.43;4.93;;;14.20;85.80;;;;;;5033945;28;20041;-73
2021/08/10 00:48:45;;;;;;;9.77;5.60;;;14.10;85.70;;;;;;5050039;28;20101;-73
2021/08/10 00:51:14;;;;;;;7.55;5.20;;;14.10;85.80;;;;;;5032929;28;20056;-73
2021/08/10 00:53:47;;;;;;;6.10;4.93;;;14.10;85.90;;;;;;5053303;28;20486;-73
2021/08/10 00:56:17;;;;;;;9.02;5.25;;;14.10;85.90;;;;;;5054037;28;20052;-74
2021/08/10 00:58:48;;;;;;;7.53;4.85;;;14.10;85.90;;;;;;5054332;28;20052;-74
2021/08/10 01:01:16;;;;;;;10.57;5.22;;;14.10;86.00;;;;;;5053736;28;20053;-74
2021/08/10 01:03:45;;;;;;;8.32;5.57;;;14.10;86.10;;;;;;5034405;28;20045;-73
2021/08/10 01:06:20;;;;;;;9.68;5.38;;;14.00;86.20;;;;;;5034092;28;20046;-73
2021/08/10 01:09:03;;;;;;;9.95;5.50;;;14.00;86.20;;;;;;5034013;28;20034;-73
2021/08/10 01:11:52;;;;;;;7.60;5.45;;;14.10;86.30;;;;;;5034351;28;20590;-73
2021/08/10 01:14:57;;;;;;;11.75;5.50;;;14.10;86.30;;;;;;5017731;28;20049;-73
2021/08/10 01:17:41;;;;;;;9.43;5.57;;;14.10;86.40;;;;;;5034071;28;20050;-73
2021/08/10 01:20:40;;;;;;;9.40;5.53;;;14.00;86.50;;;;;;5033870;28;20050;-73
2021/08/10 01:23:12;;;;;;;6.15;5.35;;;14.00;86.60;;;;;;5033972;28;20038;-73
2021/08/10 01:26:26;;;;;;;10.82;6.00;;;14.00;86.60;;;;;;5033778;28;20056;-73
2021/08/10 01:29:09;;;;;;;12.45;6.10;;;13.90;86.70;;;;;;5031775;28;20411;-73
2021/08/10 01:31:40;;;;;;;8.77;5.63;;;13.90;86.80;;;;;;5033495;28;20060;-73
2021/08/10 01:34:26;;;;;;;9.95;5.43;;;13.90;86.90;;;;;;5034752;28;20403;-73
2021/08/10 01:37:03;;;;;;;8.68;5.45;;;13.90;87.10;;;;;;5033626;28;20045;-73
2021/08/10 01:39:36;;;;;;;10.43;5.93;;;13.90;87.30;;;;;;5017315;28;20057;-73
2021/08/10 01:42:04;;;;;;;9.18;6.25;;;13.90;87.40;;;;;;5016978;28;20045;-73
2021/08/10 01:44:34;;;;;;;9.05;5.63;;;13.90;87.40;;;;;;5033522;28;20050;-74
2021/08/10 01:47:09;;;;;;;10.45;5.50;;;13.90;87.40;;;;;;5017819;28;20045;-73
2021/08/10 01:49:41;;;;;;;10.35;5.90;;;13.90;87.40;;;;;;5033393;28;20048;-73
2021/08/10 01:52:18;;;;;;;8.18;6.20;;;13.90;87.50;;;;;;5033377;28;20064;-73
2021/08/10 01:54:49;;;;;;;7.55;6.13;;;13.90;87.50;;;;;;5053195;28;20037;-74
2021/08/10 01:57:18;;;;;;;14.35;5.85;;;13.90;87.60;;;;;;5053231;28;20055;-74
2021/08/10 01:59:50;;;;;;;11.18;6.13;;;13.90;87.60;;;;;;5052976;28;20052;-73
2021/08/10 02:02:19;;;;;;;9.48;5.82;;;13.90;87.70;;;;;;5053067;28;20055;-73
2021/08/10 02:04:50;;;;;;;8.90;6.03;;;14.00;87.70;;;;;;5052957;28;20059;-74
2021/08/10 02:07:19;;;;;;;9.32;5.60;;;14.00;87.80;;;;;;5052440;28;20302;-73
2021/08/10 02:09:52;;;;;;;8.93;5.65;;;14.00;87.90;;;;;;5052858;28;20052;-74
2021/08/10 02:12:22;;;;;;;12.82;5.90;;;14.00;87.90;;;;;;5052964;28;20051;-73
2021/08/10 02:14:53;;;;;;;8.88;5.65;;;14.00;87.80;;;;;;5052856;28;20048;-73
2021/08/10 02:17:29;;;;;;;8.38;5.63;;;14.00;87.90;;;;;;5052912;28;20044;-73
2021/08/10 02:20:07;;;;;;;10.65;5.80;;;14.00;87.80;;;;;;5052634;28;20045;-73
2021/08/10 02:22:35;;;;;;;13.13;5.57;;;14.00;87.90;;;;;;5052916;28;20418;-73
2021/08/10 02:25:08;;;;;;;12.13;5.45;;;14.00;87.90;;;;;;5042358;28;20042;-74
2021/08/10 02:27:52;;;;;;;10.77;6.00;;;14.00;87.90;;;;;;5032646;28;20045;-73
2021/08/10 02:30:27;;;;;;;12.10;5.40;;;14.10;87.90;;;;;;5048676;28;20058;-73
2021/08/10 02:32:57;;;;;;;10.63;5.90;;;14.10;87.90;;;;;;5034087;28;20049;-73
2021/08/10 02:35:28;;;;;;;8.98;5.53;;;14.10;87.90;;;;;;5032433;28;20045;-73
2021/08/10 02:38:00;;;;;;;13.18;5.47;;;14.10;87.90;;;;;;5049281;28;20042;-73
2021/08/10 02:40:29;;;;;;;7.95;5.45;;;14.10;87.90;;;;;;5015841;28;20054;-73
2021/08/10 02:43:00;;;;;;;7.57;5.07;;;14.10;87.90;;;;;;5048924;28;20056;-73
2021/08/10 02:45:31;;;;;;;12.77;5.35;;;14.20;88.00;;;;;;5032395;28;20049;-73
2021/08/10 02:48:00;;;;;;;9.52;5.63;;;14.10;87.90;;;;;;5031915;28;20049;-73
2021/08/10 02:50:32;;;;;;;11.77;5.85;;;14.10;87.90;;;;;;5032190;28;20042;-73
2021/08/10 02:53:02;;;;;;;11.75;5.40;;;14.10;88.00;;;;;;5031815;28;20053;-73
2021/08/10 02:55:39;;;;;;;13.10;5.15;;;14.10;88.00;;;;;;5031962;28;20494;-73
2021/08/10 02:58:16;;;;;;;11.77;5.20;;;14.20;88.00;;;;;;5048076;28;20060;-73
2021/08/10 03:01:02;;;;;;;9.82;5.30;;;14.10;88.00;;;;;;5033864;28;20052;-73
2021/08/10 03:03:32;;;;;;;12.73;5.32;;;14.20;88.00;;;;;;5031894;28;20529;-73
2021/08/10 03:06:06;;;;;;;10.13;5.28;;;14.10;88.00;;;;;;5033197;28;20041;-74
2021/08/10 03:08:43;;;;;;;9.88;4.78;;;14.10;88.00;;;;;;5031567;28;20046;-74
2021/08/10 03:11:11;;;;;;;10.23;4.57;;;14.10;88.10;;;;;;5031912;28;20120;-73
2021/08/10 03:13:44;;;;;;;7.32;5.03;;;14.10;88.10;;;;;;5048416;28;20060;-73
2021/08/10 03:16:14;;;;;;;11.57;4.78;;;14.10;88.10;;;;;;5047779;28;20149;-74
2021/08/10 03:18:49;;;;;;;10.68;4.65;;;14.10;88.20;;;;;;5031694;28;20064;-73
2021/08/10 03:21:20;;;;;;;14.82;5.55;;;14.10;88.30;;;;;;5031709;28;20038;-73
2021/08/10 03:23:51;;;;;;;10.65;5.32;;;14.00;88.20;;;;;;5032737;28;20052;-74
2021/08/10 03:26:21;;;;;;;14.20;5.18;;;14.00;88.30;;;;;;5048227;28;20487;-73
2021/08/10 03:28:50;;;;;;;9.77;4.93;;;14.00;88.40;;;;;;5015278;28;20526;-73
2021/08/10 03:31:19;;;;;;;10.15;4.68;;;14.10;88.40;;;;;;5031554;28;20045;-73
2021/08/10 03:33:50;;;;;;;9.13;4.50;;;14.10;88.40;;;;;;5031452;28;20072;-73
2021/08/10 03:36:24;;;;;;;10.35;4.78;;;14.10;88.30;;;;;;5047799;28;20052;-73
2021/08/10 03:38:57;;;;;;;6.80;4.28;;;14.10;88.30;;;;;;5031481;28;20045;-73
2021/08/10 03:41:27;;;;;;;7.75;4.70;;;14.10;88.30;;;;;;5031296;28;20061;-73
2021/08/10 03:43:56;;;;;;;9.88;4.82;;;14.20;88.30;;;;;;5030939;28;20526;-73
2021/08/10 03:46:29;;;;;;;9.52;4.50;;;14.20;88.30;;;;;;5031247;28;20041;-74
2021/08/10 03:48:57;;;;;;;10.48;4.60;;;14.20;88.30;;;;;;5047791;28;20045;-73
2021/08/10 03:51:26;;;;;;;10.02;4.47;;;14.20;88.30;;;;;;5032369;28;20056;-73
2021/08/10 03:53:56;;;;;;;10.13;4.20;;;14.30;88.30;;;;;;5047634;28;20487;-73
2021/08/10 03:56:25;;;;;;;9.45;4.95;;;14.30;88.30;;;;;;5014426;28;20045;-73
2021/08/10 03:58:55;;;;;;;11.90;4.32;;;14.30;88.20;;;;;;5049869;28;20048;-73
2021/08/10 04:01:31;;;;;;;10.00;4.30;;;14.30;88.20;;;;;;5050997;28;20041;-73
2021/08/10 04:04:02;;;;;;;6.97;4.00;;;14.30;88.20;;;;;;5050947;28;20045;-74
2021/08/10 04:06:34;;;;;;;6.25;3.92;;;14.30;88.20;;;;;;5047514;28;20051;-74
2021/08/10 04:09:06;;;;;;;8.70;4.03;;;14.30;88.20;;;;;;5030546;28;20054;-73
2021/08/10 04:11:38;;;;;;;8.50;4.15;;;14.30;88.20;;;;;;5031202;28;20041;-73
2021/08/10 04:14:12;;;;;;;8.68;4.10;;;14.30;88.10;;;;;;5015486;28;20129;-73
2021/08/10 04:16:52;;;;;;;10.70;4.40;;;14.30;88.20;;;;;;5030672;28;20046;-73
2021/08/10 04:19:27;;;;;;;6.25;4.10;;;14.40;88.10;;;;;;5030901;28;20045;-73
2021/08/10 04:21:55;;;;;;;7.38;3.70;;;14.40;88.10;;;;;;5030742;28;20050;-73
2021/08/10 04:24:23;;;;;;;8.10;3.63;;;14.40;88.10;;;;;;5030831;28;20049;-73
2021/08/10 04:26:52;;;;;;;8.50;3.75;;;14.40;88.10;;;;;;5033118;28;20049;-74
2021/08/10 04:29:21;;;;;;;12.15;4.53;;;14.40;88.10;;;;;;5034775;28;20045;-73
2021/08/10 04:31:50;;;;;;;11.57;4.60;;;14.40;88.10;;;;;;5036365;28;20053;-73
2021/08/10 04:34:18;;;;;;;8.93;4.10;;;14.40;88.10;;;;;;5018693;28;20048;-73
2021/08/10 04:36:47;;;;;;;12.30;4.20;;;14.40;88.20;;;;;;5018370;28;20052;-73
2021/08/10 04:39:15;;;;;;;10.35;3.75;;;14.40;88.20;;;;;;5034730;28;20054;-73
2021/08/10 04:41:43;;;;;;;8.52;3.83;;;14.40;88.30;;;;;;5034673;28;20049;-73
2021/08/10 04:44:11;;;;;;;10.15;3.88;;;14.40;88.40;;;;;;5034635;28;20057;-73
2021/08/10 04:46:39;;;;;;;8.70;3.83;;;14.40;88.40;;;;;;5034654;28;20159;-74
2021/08/10 04:49:07;;;;;;;7.32;4.05;;;14.40;88.40;;;;;;5034407;28;20041;-73
2021/08/10 04:51:35;;;;;;;11.20;4.05;;;14.40;88.50;;;;;;5035778;28;20042;-74
2021/08/10 04:54:03;;;;;;;8.70;4.38;;;14.40;88.50;;;;;;5034449;28;20052;-73
2021/08/10 04:56:31;;;;;;;11.23;4.35;;;14.40;88.50;;;;;;5034430;28;20044;-74
2021/08/10 04:58:58;;;;;;;7.93;4.05;;;14.40;88.50;;;;;;5035441;28;20066;-73
2021/08/10 05:01:28;;;;;;;9.60;4.20;;;14.40;88.50;;;;;;5034387;28;20053;-74
2021/08/10 05:03:56;;;;;;;7.95;4.22;;;14.40;88.60;;;;;;5017802;28;20402;-74
2021/08/10 05:06:24;;;;;;;8.63;4.63;;;14.40;88.70;;;;;;5034304;28;20037;-74
2021/08/10 05:08:52;;;;;;;14.30;4.43;;;14.40;88.60;;;;;;5034068;28;20052;-74
2021/08/10 05:11:20;;;;;;;10.63;4.72;;;14.40;88.60;;;;;;5033860;28;20062;-74
2021/08/10 05:13:49;;;;;;;9.95;4.22;;;14.40;88.60;;;;;;5033889;28;20049;-74
2021/08/10 05:16:17;;;;;;;10.45;4.50;;;14.40;88.70;;;;;;5034071;28;20049;-73
2021/08/10 05:18:47;;;;;;;7.30;4.13;;;14.40;88.70;;;;;;5034066;28;20053;-74
2021/08/10 05:21:16;;;;;;;7.50;4.10;;;14.40;88.70;;;;;;5033837;28;20041;-73
2021/08/10 05:23:49;;;;;;;14.27;4.30;;;14.40;88.70;;;;;;5018318;28;20061;-73
2021/08/10 05:26:17;;;;;;;10.30;4.10;;;14.40;88.80;;;;;;5033866;28;20050;-73
2021/08/10 05:28:46;;;;;;;8.18;4.40;;;14.40;88.90;;;;;;5035695;28;20057;-73
2021/08/10 05:31:17;;;;;;;15.35;4.57;;;14.40;88.90;;;;;;5033788;28;20050;-73
2021/08/10 05:33:45;;;;;;;9.32;4.35;;;14.30;89.10;;;;;;5033497;28;20403;-73
2021/08/10 05:36:13;;;;;;;11.90;4.95;;;14.30;89.30;;;;;;5034874;28;20486;-73
2021/08/10 05:38:45;;;;;;;12.15;4.32;;;14.30;89.50;;;;;;5032906;28;20050;-73
2021/08/10 05:41:12;;;;;;;11.02;4.80;;;14.30;89.50;;;;;;5033506;28;20046;-73
2021/08/10 05:43:40;;;;;;;8.27;4.65;;;14.30;89.40;;;;;;5033525;28;20053;-74
2021/08/10 05:46:10;;;;;;;8.40;4.50;;;14.40;89.40;;;;;;5033443;28;20037;-74
2021/08/10 05:48:39;;;;;;;12.27;4.32;;;14.50;89.30;;;;;;5034656;28;20052;-73
2021/08/10 05:51:09;;;;;;;7.90;4.25;;;14.50;89.30;;;;;;5016729;28;20057;-72
2021/08/10 05:53:38;;;;;;;8.32;4.15;;;14.60;89.30;;;;;;5033408;28;20049;-72
2021/08/10 05:56:09;;;;;;;11.57;4.38;;;14.60;89.20;;;;;;5033556;28;20050;-73
2021/08/10 05:58:38;;;;;;;12.93;4.63;;;14.70;89.20;;;;;;5033392;28;20041;-73
2021/08/10 06:01:06;;;;;;;9.70;4.13;;;14.70;89.10;;;;;;5016758;28;20399;-73
2021/08/10 06:03:35;;;;;;;12.15;4.15;;;14.80;89.00;;;;;;5033134;28;20049;-73
2021/08/10 06:06:03;;;;;;;7.22;3.13;;;14.80;88.80;;;;;;5034366;28;20044;-73
2021/08/10 06:08:45;;;;;;;10.15;3.35;;;14.90;88.70;;;;;;5041240;28;20088;-72
2021/08/10 06:11:13;;;;;;;10.52;3.75;;;15.00;88.50;;;;;;5035040;28;20503;-73
2021/08/10 06:13:41;;;;;;;6.30;3.67;;;15.10;88.30;;;;;;5049685;28;20049;-72
2021/08/10 06:16:08;;;;;;;7.68;3.83;;;15.20;88.20;;;;;;5033109;28;20400;-73
2021/08/10 06:18:37;;;;;;;9.65;3.05;;;15.30;88.00;;;;;;5032968;28;20045;-73
2021/08/10 06:21:11;;;;;;;5.90;3.13;;;15.30;87.80;;;;;;5032695;28;20037;-73
2021/08/10 06:23:40;;;;;;;9.23;3.70;;;15.30;87.40;;;;;;5032821;28;20053;-73
2021/08/10 06:26:08;;;;;;;10.32;3.70;;;15.30;87.30;;;;;;5033963;28;20046;-73
2021/08/10 06:28:36;;;;;;;10.38;3.45;;;15.30;87.30;;;;;;5032596;28;20411;-73
2021/08/10 06:31:04;;;;;;;10.18;3.88;;;15.30;87.30;;;;;;5032898;28;20049;-74
2021/08/10 06:33:32;;;;;;;8.30;3.35;;;15.40;87.20;;;;;;5032636;28;20042;-74
2021/08/10 06:36:01;;;;;;;10.75;4.00;;;15.40;87.20;;;;;;5032870;28;20049;-74
2021/08/10 06:38:32;;;;;;;5.10;3.33;;;15.40;87.00;;;;;;5032863;28;20053;-74
2021/08/10 06:41:01;;;;;;;10.35;3.70;;;15.50;86.90;;;;;;5032551;28;20049;-74
2021/08/10 06:43:29;;;;;;;6.10;3.63;;;15.50;86.80;;;;;;5032493;28;20045;-74
2021/08/10 06:46:15;;;;;;;8.25;3.42;;;15.50;86.80;;;;;;5033604;28;20038;-74
2021/08/10 06:48:44;;;;;;;10.10;3.70;;;15.60;86.70;;;;;;5032268;28;20395;-73
2021/08/10 06:51:13;;;;;;;6.63;3.25;;;15.60;86.60;;;;;;5031520;28;20050;-74
2021/08/10 06:53:40;;;;;;;10.55;3.80;;;15.70;86.30;;;;;;5032318;28;20401;-74
2021/08/10 06:56:11;;;;;;;11.82;3.85;;;15.70;86.30;;;;;;5032142;28;20041;-74
2021/08/10 06:58:40;;;;;;;7.13;3.47;;;15.70;86.30;;;;;;5032224;28;20048;-74
2021/08/10 07:01:23;;;;;;;7.15;3.58;;;15.70;86.40;;;;;;5032069;28;20064;-74
2021/08/10 07:03:53;;;;;;;8.18;4.20;;;15.60;86.30;;;;;;5031621;28;20068;-74
2021/08/10 07:06:22;;;;;;;6.72;3.80;;;15.60;86.40;;;;;;5032020;28;20052;-74
2021/08/10 07:08:54;;;;;;;4.38;2.78;;;15.60;86.50;;;;;;5015305;28;20056;-73
2021/08/10 07:11:23;;;;;;;7.63;3.50;;;15.70;86.50;;;;;;5031320;28;20057;-74
2021/08/10 07:13:55;;;;;;;6.65;3.38;;;15.70;86.40;;;;;;5015431;28;20045;-74
2021/08/10 07:16:23;;;;;;;6.18;3.33;;;15.80;86.30;;;;;;5032051;28;20057;-74
2021/08/10 07:18:53;;;;;;;6.25;3.47;;;16.00;86.10;;;;;;5031725;28;20049;-74
2021/08/10 07:21:24;;;;;;;11.73;3.85;;;16.00;85.80;;;;;;5031511;28;20041;-74
2021/08/10 07:23:58;;;;;;;8.10;3.80;;;16.10;85.50;;;;;;5031756;28;20383;-74
2021/08/10 07:26:27;;;;;;;6.53;3.70;;;16.20;85.40;;;;;;5014996;28;20053;-74
2021/08/10 07:28:58;;;;;;;6.07;3.70;;;16.20;85.30;;;;;;5029603;28;20038;-74
2021/08/10 07:31:28;;;;;;;7.60;2.90;;;16.30;85.20;;;;;;5031628;28;20045;-74
2021/08/10 07:34:01;;;;;;;6.50;3.80;;;16.50;84.80;;;;;;5031686;28;20055;-74
2021/08/10 07:36:31;;;;;;;3.05;2.47;;;16.60;84.40;;;;;;5031026;28;20056;-74
2021/08/10 07:39:00;;;;;;;4.90;3.00;;;16.70;84.10;;;;;;5031384;28;20052;-74
2021/08/10 07:41:29;;;;;;;5.22;3.90;;;16.80;83.80;;;;;;5031407;28;20041;-74
2021/08/10 07:43:57;;;;;;;3.35;2.92;;;16.90;83.20;;;;;;5032563;28;20052;-74
2021/08/10 07:46:26;;;;;;;7.38;3.03;;;16.90;82.90;;;;;;5031300;28;20520;-74
2021/08/10 07:48:54;;;;;;;5.07;3.25;;;17.00;82.40;;;;;;5031233;28;20116;-74
2021/08/10 07:51:24;;;;;;;5.88;3.05;;;17.00;82.30;;;;;;5015310;28;20112;-74
2021/08/10 07:53:52;;;;;;;4.35;2.92;;;17.00;82.00;;;;;;5030486;28;20049;-75
2021/08/10 07:56:20;;;;;;;5.68;2.70;;;17.00;81.70;;;;;;5031338;28;20064;-74
2021/08/10 07:58:50;;;;;;;6.03;2.85;;;17.00;81.50;;;;;;5014847;28;20057;-74
2021/08/10 08:01:18;;;;;;;5.53;2.83;;;17.00;81.30;;;;;;5014611;28;20479;-74
2021/08/10 08:03:46;;;;;;;4.78;3.08;;;17.00;81.40;;;;;;5031035;28;20037;-74
2021/08/10 08:06:13;;;;;;;8.95;3.10;;;17.10;81.30;;;;;;5031231;28;20060;-74
2021/08/10 08:08:42;;;;;;;4.72;2.90;;;17.20;81.00;;;;;;5030588;28;20060;-74
2021/08/10 08:11:16;;;;;;;9.55;3.05;;;17.30;80.90;;;;;;5034518;28;20400;-73
2021/08/10 08:13:44;;;;;;;7.57;2.90;;;17.40;80.70;;;;;;5047878;28;20041;-73
2021/08/10 08:16:12;;;;;;;4.07;2.85;;;17.60;80.30;;;;;;5034807;28;20379;-73
2021/08/10 08:18:43;;;;;;;2.72;2.50;;;17.70;79.60;;;;;;5050459;28;20053;-73
2021/08/10 08:21:13;;;;;;;7.63;4.05;;;17.90;79.10;;;;;;5031321;28;20657;-74
2021/08/10 08:23:45;;;;;;;8.55;2.90;;;18.00;78.70;;;;;;5030739;28;20057;-74
2021/08/10 08:26:13;;;;;;;4.97;3.38;;;18.00;78.70;;;;;;5047659;28;20045;-74
2021/08/10 08:28:42;;;;;;;5.93;4.70;;;18.10;78.50;;;;;;5047241;28;20053;-74
2021/08/10 08:31:11;;;;;;;4.03;2.53;;;18.30;78.20;;;;;;5030741;28;20072;-73
2021/08/10 08:33:38;;;;;;;4.45;2.90;;;18.30;77.90;;;;;;5047117;28;20434;-74
2021/08/10 08:36:06;;;;;;;3.92;2.70;;;18.20;77.50;;;;;;5030743;28;20065;-73
2021/08/10 08:38:34;;;;;;;4.70;2.90;;;18.20;76.90;;;;;;5030846;28;20052;-73
2021/08/10 08:41:06;;;;;;;5.65;2.95;;;18.20;77.20;;;;;;5030703;28;20057;-74
2021/08/10 08:43:34;;;;;;;3.83;3.22;;;18.20;77.30;;;;;;4998541;28;20037;-74
2021/08/10 08:46:03;;;;;;;8.20;2.75;;;18.30;77.00;;;;;;5030891;28;20056;-74
2021/08/10 08:48:35;;;;;;;6.50;2.90;;;18.30;76.80;;;;;;5047872;28;20264;-74
2021/08/10 08:51:08;;;;;;;11.85;2.60;;;18.20;76.60;;;;;;5029969;28;20057;-74
2021/08/10 08:53:43;;;;;;;27.42;3.72;;;18.20;76.90;;;;;;5030771;28;20042;-73
2021/08/10 08:56:11;;;;;;;5.30;2.80;;;18.30;76.70;;;;;;5031171;28;20490;-74
2021/08/10 08:58:38;;;;;;;7.05;4.38;;;18.40;76.00;;;;;;5030658;28;20542;-74
2021/08/10 09:01:07;;;;;;;16.55;4.82;;;18.50;75.90;;;;;;5030470;28;20041;-74
2021/08/10 09:03:35;;;;;;;3.38;2.72;;;18.60;75.70;;;;;;5030622;28;20403;-74
2021/08/10 09:06:03;;;;;;;6.63;2.67;;;18.70;75.30;;;;;;5030577;28;20517;-74
2021/08/10 09:08:34;;;;;;;13.52;3.17;;;18.80;74.90;;;;;;5047094;28;20403;-74
2021/08/10 09:11:15;;;;;;;9.07;2.63;;;18.80;74.30;;;;;;5046746;28;20076;-74
2021/08/10 09:14:00;;;;;;;3.67;1.80;;;18.90;73.90;;;;;;5032348;28;20045;-74
2021/08/10 09:16:32;;;;;;;3.58;2.50;;;18.90;73.00;;;;;;5034230;28;20056;-74
2021/08/10 09:19:03;;;;;;;4.90;2.33;;;18.80;72.90;;;;;;5036856;28;20049;-74
2021/08/10 09:21:33;;;;;;;6.60;2.70;;;18.80;73.10;;;;;;5050871;28;20057;-74
2021/08/10 09:24:15;;;;;;;4.38;2.17;;;19.00;73.20;;;;;;5053816;28;20048;-74
2021/08/10 09:26:43;;;;;;;3.05;2.15;;;19.00;72.70;;;;;;5053905;28;20068;-73
2021/08/10 09:29:19;;;;;;;4.95;2.30;;;19.00;72.00;;;;;;5053864;28;20049;-74
2021/08/10 09:31:48;;;;;;;3.33;2.17;;;18.90;72.30;;;;;;5053791;28;20044;-74
2021/08/10 09:34:28;;;;;;;5.93;2.20;;;18.90;72.60;;;;;;5053669;28;20056;-74
2021/08/10 09:36:59;;;;;;;7.63;3.08;;;18.90;72.20;;;;;;5053678;28;20045;-74
2021/08/10 09:39:35;;;;;;;8.93;3.25;;;19.00;72.10;;;;;;5053958;28;20066;-74
2021/08/10 09:42:08;;;;;;;12.57;3.70;;;19.10;72.40;;;;;;5048854;28;20041;-74
2021/08/10 09:44:58;;;;;;;4.38;2.33;;;19.10;72.40;;;;;;5043841;28;20049;-73
2021/08/10 09:47:41;;;;;;;3.53;2.65;;;19.10;72.30;;;;;;5044533;28;20048;-74
2021/08/10 09:50:19;;;;;;;9.20;2.97;;;18.90;72.50;;;;;;5044543;28;20045;-74
2021/08/10 09:52:47;;;;;;;4.10;2.83;;;18.80;73.10;;;;;;5034416;28;20041;-74
2021/08/10 09:55:16;;;;;;;3.75;2.15;;;18.70;73.50;;;;;;5033469;28;20076;-74
2021/08/10 09:58:02;;;;;;;5.50;2.25;;;18.80;73.50;;;;;;5033478;28;20479;-74
2021/08/10 10:00:45;;;;;;;3.08;1.70;;;19.00;72.70;;;;;;5016793;28;20068;-74
2021/08/10 10:03:17;;;;;;;2.95;2.30;;;19.10;72.00;;;;;;5017794;28;20064;-73
2021/08/10 10:05:49;;;;;;;3.08;2.10;;;19.20;72.00;;;;;;5033306;28;20050;-74
2021/08/10 10:08:21;;;;;;;2.33;1.98;;;19.20;72.00;;;;;;5034785;28;20061;-74
2021/08/10 10:10:51;;;;;;;3.85;1.52;;;19.40;71.90;;;;;;5016684;28;20053;-73
2021/08/10 10:13:22;;;;;;;3.30;2.10;;;19.80;71.00;;;;;;5036203;28;20048;-74
2021/08/10 10:15:50;;;;;;;5.32;1.60;;;20.10;69.50;;;;;;5039949;28;20049;-78
2021/08/10 10:18:22;;;;;;;3.08;1.90;;;20.30;68.10;;;;;;5033922;28;20038;-74
2021/08/10 10:20:50;;;;;;;3.47;1.80;;;20.40;66.70;;;;;;5034162;28;20057;-74
2021/08/10 10:23:23;;;;;;;2.05;1.70;;;20.40;66.70;;;;;;5033822;28;20053;-74
2021/08/10 10:25:56;;;;;;;5.75;2.20;;;20.30;66.00;;;;;;5033964;28;20491;-74
2021/08/10 10:28:23;;;;;;;7.95;3.70;;;20.30;66.60;;;;;;5034060;28;20403;-74
2021/08/10 10:30:51;;;;;;;5.38;2.58;;;20.40;66.20;;;;;;5047770;28;20406;-74
2021/08/10 10:33:19;;;;;;;4.93;2.50;;;20.30;66.50;;;;;;5053657;28;20045;-74
2021/08/10 10:35:49;;;;;;;6.53;2.90;;;20.30;67.10;;;;;;5054154;28;20060;-73
2021/08/10 10:38:18;;;;;;;2.78;1.67;;;20.20;67.00;;;;;;5053209;28;20056;-74
2021/08/10 10:40:46;;;;;;;5.25;1.80;;;20.00;67.40;;;;;;5053075;28;20049;-75
2021/08/10 10:43:14;;;;;;;3.35;1.80;;;20.10;67.10;;;;;;5053630;28;20052;-75
2021/08/10 10:45:43;;;;;;;2.60;2.00;;;20.10;67.00;;;;;;5051905;28;20418;-75
2021/08/10 10:48:31;;;;;;;2.30;1.90;;;20.20;66.90;;;;;;5051445;28;20049;-75
2021/08/10 10:51:12;;;;;;;2.80;1.80;;;20.50;66.50;;;;;;5053126;28;20053;-74
2021/08/10 10:53:45;;;;;;;3.20;1.90;;;20.60;65.30;;;;;;5053482;28;20510;-74
2021/08/10 10:56:42;;;;;;;2.67;2.20;;;20.60;64.60;;;;;;5053080;28;20490;-74
2021/08/10 10:59:23;;;;;;;5.40;2.90;;;20.40;64.90;;;;;;5053886;28;20056;-74
2021/08/10 11:01:52;;;;;;;3.03;2.72;;;20.40;65.40;;;;;;5053472;28;20053;-74
2021/08/10 11:04:20;;;;;;;6.57;2.95;;;20.40;65.40;;;;;;5051994;28;20057;-76
2021/08/10 11:06:50;;;;;;;6.32;2.60;;;20.40;65.60;;;;;;5053235;28;20053;-77
2021/08/10 11:09:46;;;;;;;2.22;2.03;;;20.30;65.40;;;;;;5053279;28;20049;-74
2021/08/10 11:12:41;;;;;;;5.13;2.50;;;20.00;65.40;;;;;;5053337;28;20053;-75
2021/08/10 11:15:10;;;;;;;3.85;2.42;;;20.20;65.40;;;;;;5032472;28;20052;-74
2021/08/10 11:17:38;;;;;;;5.82;2.83;;;20.40;65.10;;;;;;5031207;28;20399;-74
2021/08/10 11:20:25;;;;;;;4.95;3.53;;;20.70;64.70;;;;;;5031780;28;20045;-74
2021/08/10 11:23:25;;;;;;;3.22;2.65;;;20.80;63.90;;;;;;5032426;28;20384;-74
2021/08/10 11:25:58;;;;;;;3.60;3.30;;;20.70;64.00;;;;;;5032739;28;20553;-74
2021/08/10 11:28:29;;;;;;;;;;;20.80;64.20;;;;;;5033217;28;20384;-75
2021/08/10 11:30:59;;;;;;;4.30;2.63;;;21.00;64.00;;;;;;5032736;28;19921;-74
2021/08/10 11:33:32;;;;;;;11.43;2.53;;;21.40;62.60;;;;;;5032563;28;20048;-74
2021/08/10 11:36:09;;;;;;;8.45;2.50;;;21.80;62.10;;;;;;5032874;28;20387;-74
2021/08/10 11:38:52;;;;;;;27.23;3.47;;;22.00;60.80;;;;;;5032930;28;20069;-74
2021/08/10 11:41:29;;;;;;;26.02;3.53;;;22.20;60.00;;;;;;5032569;28;20045;-74
2021/08/10 11:44:02;;;;;;;4.88;2.50;;;22.20;59.60;;;;;;5032837;28;20053;-74
2021/08/10 11:46:31;;;;;;;22.38;3.80;;;22.00;59.50;;;;;;5032635;28;20046;-74
2021/08/10 11:49:01;;;;;;;6.50;2.70;;;21.80;59.70;;;;;;5032850;28;20049;-74
2021/08/10 11:51:33;;;;;;;7.70;2.60;;;21.70;60.10;;;;;;5030952;28;20056;-74
2021/08/10 11:54:10;;;;;;;5.13;2.67;;;22.00;60.60;;;;;;5032540;28;20044;-74
2021/08/10 11:56:40;;;;;;;4.40;1.90;;;22.60;59.50;;;;;;5032536;28;20045;-74
2021/08/10 11:59:18;;;;;;;4.15;1.63;;;22.90;57.30;;;;;;5032419;28;20045;-74
2021/08/10 12:01:47;;;;;;;4.15;2.10;;;23.20;56.40;;;;;;5032215;28;20049;-75
2021/08/10 12:04:21;;;;;;;4.18;2.03;;;23.30;55.50;;;;;;5032330;28;20064;-74
2021/08/10 12:06:53;;;;;;;2.90;1.63;;;23.40;55.30;;;;;;5032375;28;20384;-74
2021/08/10 12:09:34;;;;;;;2.00;1.80;;;23.50;54.00;;;;;;5032262;28;20495;-75
2021/08/10 12:12:04;;;;;;;2.22;1.90;;;23.60;53.10;;;;;;5031041;28;20054;-74
2021/08/10 12:14:33;;;;;;;14.80;2.65;;;23.60;53.40;;;;;;5031870;28;20060;-74
2021/08/10 12:17:10;;;;;;;4.72;2.00;;;23.80;53.60;;;;;;5032205;28;20045;-75
2021/08/10 12:19:45;;;;;;;2.45;2.03;;;23.90;52.50;;;;;;5032954;28;20049;-74
2021/08/10 12:22:18;;;;;;;2.72;1.60;;;24.00;52.40;;;;;;5032292;28;20046;-75
2021/08/10 12:24:47;;;;;;;;;;;24.00;52.50;;;;;;5031390;28;20042;-74
2021/08/10 12:27:16;;;;;;;3.20;1.70;;;24.20;51.20;;;;;;5031408;28;19928;-74
2021/08/10 12:29:50;;;;;;;3.17;2.08;;;24.40;51.90;;;;;;5032163;28;20076;-74
2021/08/10 12:32:28;;;;;;;3.13;2.20;;;24.80;50.50;;;;;;5031839;28;20045;-74
2021/08/10 12:34:56;;;;;;;6.30;2.72;;;25.00;50.00;;;;;;5032151;28;20041;-75
2021/08/10 12:37:28;;;;;;;4.50;2.20;;;24.80;50.00;;;;;;5031804;28;20042;-75
2021/08/10 12:39:57;;;;;;;3.60;2.10;;;24.60;50.00;;;;;;5030421;28;20046;-74
2021/08/10 12:42:26;;;;;;;6.13;2.00;;;24.00;50.60;;;;;;5031803;28;20052;-75
2021/08/10 12:44:55;;;;;;;3.67;2.20;;;23.30;51.80;;;;;;5031867;28;20042;-74
2021/08/10 12:47:39;;;;;;;3.92;2.10;;;22.90;52.80;;;;;;5033049;28;20400;-74
2021/08/10 12:50:23;;;;;;;4.13;1.83;;;22.90;53.30;;;;;;5035894;28;20046;-74
2021/08/10 12:52:51;;;;;;;2.83;1.70;;;22.90;53.00;;;;;;5034838;28;20068;-75
2021/08/10 12:55:20;;;;;;;27.65;3.25;;;22.80;53.10;;;;;;5035256;28;20510;-74
2021/08/10 12:57:58;;;;;;;5.53;2.28;;;23.20;53.00;;;;;;5034283;28;20060;-75
2021/08/10 13:00:26;;;;;;;4.50;2.38;;;23.30;52.70;;;;;;5035055;28;20050;-74
2021/08/10 13:02:55;;;;;;;1.67;1.40;;;23.30;52.60;;;;;;5035586;28;20064;-75
2021/08/10 13:05:37;;;;;;;5.43;1.30;;;23.30;52.50;;;;;;5035787;28;20065;-76
2021/08/10 13:08:08;;;;;;;3.42;1.42;;;24.00;51.10;;;;;;5036062;28;20061;-75
2021/08/10 13:10:38;;;;;;;12.07;2.45;;;24.80;48.90;;;;;;5035277;28;20045;-74